sensor_id;sensor_type;location;lat;lon;timestamp;pressure;altitude;pressure_sealevel;temperature;humidity
11621;BME280;5866;49.094;11.900;2023-08-30T00:01:55;95603.34;;;13.57;100.00
11621;BME280;5866;49.094;11.900;2023-08-30T00:04:23;95618.88;;;13.53;100.00
11621;BME280;5866;49.094;11.900;2023-08-30T00:06:50;95608.66;;;13.57;100.00
11621;BME280;5866;49.094;11.900;2023-08-30T00:09:18;95612.53;;;13.54;100.00
11621;BME280;5866;49.094;11.900;2023-08-30T00:11:45;95609.00;;;13.47;100.00
11621;BME280;5866;49.094;11.900;2023-08-30T00:14:13;95602.09;;;13.60;100.00
11621;BME280;5866;49.094;11.900;2023-08-30T00:16:42;95603.38;;;13.70;100.00
11621;BME280;5866;49.094;11.900;2023-08-30T00:19:09;95603.81;;;13.67;100.00
11621;BME280;5866;49.094;11.900;2023-08-30T00:21:37;95609.44;;;13.85;100.00
11621;BME280;5866;49.094;11.900;2023-08-30T00:24:05;95605.56;;;13.88;100.00
11621;BME280;5866;49.094;11.900;2023-08-30T00:26:32;95608.75;;;13.77;100.00
11621;BME280;5866;49.094;11.900;2023-08-30T00:29:00;95612.84;;;13.73;100.00
11621;BME280;5866;49.094;11.900;2023-08-30T00:31:28;95618.63;;;13.83;100.00
11621;BME280;5866;49.094;11.900;2023-08-30T00:33:56;95622.72;;;13.79;100.00
11621;BME280;5866;49.094;11.900;2023-08-30T00:36:24;95621.00;;;13.65;100.00
11621;BME280;5866;49.094;11.900;2023-08-30T00:38:51;95616.53;;;13.72;100.00
11621;BME280;5866;49.094;11.900;2023-08-30T00:41:19;95619.88;;;13.80;100.00
11621;BME280;5866;49.094;11.900;2023-08-30T00:43:47;95615.44;;;13.94;100.00
11621;BME280;5866;49.094;11.900;2023-08-30T00:46:15;95612.59;;;14.02;100.00
11621;BME280;5866;49.094;11.900;2023-08-30T00:48:43;95610.06;;;14.28;100.00
11621;BME280;5866;49.094;11.900;2023-08-30T00:51:13;95600.84;;;14.37;100.00
11621;BME280;5866;49.094;11.900;2023-08-30T00:53:40;95604.88;;;14.26;100.00
11621;BME280;5866;49.094;11.900;2023-08-30T00:56:08;95605.19;;;13.97;100.00
11621;BME280;5866;49.094;11.900;2023-08-30T00:58:36;95610.47;;;13.84;100.00
11621;BME280;5866;49.094;11.900;2023-08-30T01:01:04;95608.81;;;13.83;100.00
11621;BME280;5866;49.094;11.900;2023-08-30T01:03:34;95612.41;;;13.69;100.00
11621;BME280;5866;49.094;11.900;2023-08-30T01:06:02;95614.34;;;13.82;100.00
11621;BME280;5866;49.094;11.900;2023-08-30T01:08:31;95614.50;;;13.74;100.00
11621;BME280;5866;49.094;11.900;2023-08-30T01:11:03;95617.16;;;13.74;100.00
11621;BME280;5866;49.094;11.900;2023-08-30T01:13:33;95615.16;;;13.82;100.00
11621;BME280;5866;49.094;11.900;2023-08-30T01:16:05;95617.13;;;14.08;100.00
11621;BME280;5866;49.094;11.900;2023-08-30T01:18:35;95609.41;;;14.19;100.00
11621;BME280;5866;49.094;11.900;2023-08-30T01:21:11;95610.75;;;14.43;100.00
11621;BME280;5866;49.094;11.900;2023-08-30T01:23:47;95600.09;;;14.43;100.00
11621;BME280;5866;49.094;11.900;2023-08-30T01:26:24;95601.84;;;13.89;100.00
11621;BME280;5866;49.094;11.900;2023-08-30T01:28:56;95614.03;;;14.39;100.00
11621;BME280;5866;49.094;11.900;2023-08-30T01:31:28;95596.44;;;14.70;100.00
11621;BME280;5866;49.094;11.900;2023-08-30T01:34:01;95595.69;;;14.29;100.00
11621;BME280;5866;49.094;11.900;2023-08-30T01:36:30;95603.63;;;14.16;100.00
11621;BME280;5866;49.094;11.900;2023-08-30T01:38:58;95594.34;;;14.53;100.00
11621;BME280;5866;49.094;11.900;2023-08-30T01:41:27;95597.47;;;14.15;100.00
11621;BME280;5866;49.094;11.900;2023-08-30T01:43:58;95606.25;;;14.50;100.00
11621;BME280;5866;49.094;11.900;2023-08-30T01:46:30;95609.38;;;14.13;100.00
11621;BME280;5866;49.094;11.900;2023-08-30T01:49:00;95611.69;;;13.82;100.00
11621;BME280;5866;49.094;11.900;2023-08-30T01:51:29;95614.88;;;13.71;100.00
11621;BME280;5866;49.094;11.900;2023-08-30T01:53:57;95614.00;;;13.64;100.00
11621;BME280;5866;49.094;11.900;2023-08-30T01:56:25;95608.63;;;13.91;100.00
11621;BME280;5866;49.094;11.900;2023-08-30T01:58:53;95611.22;;;14.12;100.00
11621;BME280;5866;49.094;11.900;2023-08-30T02:01:22;95610.44;;;13.78;100.00
11621;BME280;5866;49.094;11.900;2023-08-30T02:03:49;95620.81;;;13.38;100.00
11621;BME280;5866;49.094;11.900;2023-08-30T02:06:21;95626.06;;;13.25;100.00
11621;BME280;5866;49.094;11.900;2023-08-30T02:08:55;95628.16;;;13.36;100.00
11621;BME280;5866;49.094;11.900;2023-08-30T02:11:27;95615.66;;;13.65;100.00
11621;BME280;5866;49.094;11.900;2023-08-30T02:13:58;95616.56;;;13.78;100.00
11621;BME280;5866;49.094;11.900;2023-08-30T02:16:28;95615.97;;;13.83;100.00
11621;BME280;5866;49.094;11.900;2023-08-30T02:18:57;95611.00;;;14.07;100.00
11621;BME280;5866;49.094;11.900;2023-08-30T02:21:25;95603.25;;;13.85;100.00
11621;BME280;5866;49.094;11.900;2023-08-30T02:23:53;95611.59;;;13.69;100.00
11621;BME280;5866;49.094;11.900;2023-08-30T02:26:20;95609.72;;;13.97;100.00
11621;BME280;5866;49.094;11.900;2023-08-30T02:28:48;95610.88;;;13.88;100.00
11621;BME280;5866;49.094;11.900;2023-08-30T02:31:16;95602.75;;;14.50;100.00
11621;BME280;5866;49.094;11.900;2023-08-30T02:33:44;95606.06;;;14.11;100.00
11621;BME280;5866;49.094;11.900;2023-08-30T02:36:12;95590.13;;;14.91;100.00
11621;BME280;5866;49.094;11.900;2023-08-30T02:38:39;95583.72;;;15.38;100.00
11621;BME280;5866;49.094;11.900;2023-08-30T02:41:07;95575.50;;;15.52;100.00
11621;BME280;5866;49.094;11.900;2023-08-30T02:43:36;95576.25;;;15.92;100.00
11621;BME280;5866;49.094;11.900;2023-08-30T02:46:04;95572.91;;;16.03;100.00
11621;BME280;5866;49.094;11.900;2023-08-30T02:48:32;95573.13;;;16.02;100.00
11621;BME280;5866;49.094;11.900;2023-08-30T02:51:01;95574.72;;;15.45;100.00
11621;BME280;5866;49.094;11.900;2023-08-30T02:53:29;95582.91;;;14.78;100.00
11621;BME280;5866;49.094;11.900;2023-08-30T02:55:56;95585.81;;;15.16;100.00
11621;BME280;5866;49.094;11.900;2023-08-30T02:58:24;95588.44;;;14.83;100.00
11621;BME280;5866;49.094;11.900;2023-08-30T03:00:52;95587.00;;;14.81;100.00
11621;BME280;5866;49.094;11.900;2023-08-30T03:03:20;95584.69;;;14.58;100.00
11621;BME280;5866;49.094;11.900;2023-08-30T03:05:47;95594.44;;;13.78;100.00
11621;BME280;5866;49.094;11.900;2023-08-30T03:08:17;95593.31;;;13.31;100.00
11621;BME280;5866;49.094;11.900;2023-08-30T03:10:45;95608.03;;;13.27;100.00
11621;BME280;5866;49.094;11.900;2023-08-30T03:13:12;95608.03;;;13.55;100.00
11621;BME280;5866;49.094;11.900;2023-08-30T03:15:40;95613.38;;;13.27;100.00
11621;BME280;5866;49.094;11.900;2023-08-30T03:18:07;95609.38;;;13.17;100.00
11621;BME280;5866;49.094;11.900;2023-08-30T03:20:36;95613.25;;;13.14;100.00
11621;BME280;5866;49.094;11.900;2023-08-30T03:23:03;95608.03;;;13.27;100.00
11621;BME280;5866;49.094;11.900;2023-08-30T03:25:32;95610.97;;;12.90;100.00
11621;BME280;5866;49.094;11.900;2023-08-30T03:28:00;95612.13;;;12.81;100.00
11621;BME280;5866;49.094;11.900;2023-08-30T03:30:29;95613.38;;;12.85;100.00
11621;BME280;5866;49.094;11.900;2023-08-30T03:32:57;95617.94;;;12.91;100.00
11621;BME280;5866;49.094;11.900;2023-08-30T03:35:25;95612.19;;;12.88;100.00
11621;BME280;5866;49.094;11.900;2023-08-30T03:37:52;95620.34;;;12.86;100.00
11621;BME280;5866;49.094;11.900;2023-08-30T03:40:20;95611.84;;;12.97;100.00
11621;BME280;5866;49.094;11.900;2023-08-30T03:42:50;95618.44;;;13.01;100.00
11621;BME280;5866;49.094;11.900;2023-08-30T03:45:17;95611.22;;;13.16;100.00
11621;BME280;5866;49.094;11.900;2023-08-30T03:47:45;95613.16;;;13.57;100.00
11621;BME280;5866;49.094;11.900;2023-08-30T03:50:13;95608.09;;;13.68;100.00
11621;BME280;5866;49.094;11.900;2023-08-30T03:52:41;95597.91;;;14.19;100.00
11621;BME280;5866;49.094;11.900;2023-08-30T03:55:08;95594.56;;;14.10;100.00
11621;BME280;5866;49.094;11.900;2023-08-30T03:57:36;95588.06;;;14.19;100.00
11621;BME280;5866;49.094;11.900;2023-08-30T04:00:05;95592.66;;;14.32;100.00
11621;BME280;5866;49.094;11.900;2023-08-30T04:02:33;95581.28;;;15.10;100.00
11621;BME280;5866;49.094;11.900;2023-08-30T04:05:01;95587.03;;;15.33;100.00
11621;BME280;5866;49.094;11.900;2023-08-30T04:07:31;95580.47;;;15.49;100.00
11621;BME280;5866;49.094;11.900;2023-08-30T04:09:58;95575.94;;;15.62;100.00
11621;BME280;5866;49.094;11.900;2023-08-30T04:12:26;95586.19;;;15.72;100.00
11621;BME280;5866;49.094;11.900;2023-08-30T04:14:53;95580.25;;;15.44;100.00
11621;BME280;5866;49.094;11.900;2023-08-30T04:17:22;95580.25;;;15.37;100.00
11621;BME280;5866;49.094;11.900;2023-08-30T04:19:51;95580.91;;;15.46;100.00
11621;BME280;5866;49.094;11.900;2023-08-30T04:22:19;95580.69;;;15.01;100.00
11621;BME280;5866;49.094;11.900;2023-08-30T04:24:47;95579.63;;;14.96;100.00
11621;BME280;5866;49.094;11.900;2023-08-30T04:27:14;95589.09;;;15.11;100.00
11621;BME280;5866;49.094;11.900;2023-08-30T04:29:42;95582.91;;;15.44;100.00
11621;BME280;5866;49.094;11.900;2023-08-30T04:32:11;95587.03;;;15.27;100.00
11621;BME280;5866;49.094;11.900;2023-08-30T04:34:40;95577.56;;;15.57;100.00
11621;BME280;5866;49.094;11.900;2023-08-30T04:37:07;95584.50;;;15.84;100.00
11621;BME280;5866;49.094;11.900;2023-08-30T04:39:35;95589.91;;;15.38;100.00
11621;BME280;5866;49.094;11.900;2023-08-30T04:42:03;95587.16;;;15.84;100.00
11621;BME280;5866;49.094;11.900;2023-08-30T04:44:30;95588.88;;;15.59;100.00
11621;BME280;5866;49.094;11.900;2023-08-30T04:46:58;95583.34;;;15.54;100.00
11621;BME280;5866;49.094;11.900;2023-08-30T04:49:26;95600.97;;;14.76;100.00
11621;BME280;5866;49.094;11.900;2023-08-30T04:51:56;95599.63;;;14.33;100.00
11621;BME280;5866;49.094;11.900;2023-08-30T04:54:24;95603.59;;;14.03;100.00
11621;BME280;5866;49.094;11.900;2023-08-30T04:56:52;95604.34;;;13.90;100.00
11621;BME280;5866;49.094;11.900;2023-08-30T04:59:22;95611.91;;;13.52;100.00
11621;BME280;5866;49.094;11.900;2023-08-30T05:01:50;95612.50;;;13.82;100.00
11621;BME280;5866;49.094;11.900;2023-08-30T05:04:18;95614.28;;;14.16;100.00
11621;BME280;5866;49.094;11.900;2023-08-30T05:06:45;95599.16;;;15.03;100.00
11621;BME280;5866;49.094;11.900;2023-08-30T05:09:14;95595.03;;;15.07;100.00
11621;BME280;5866;49.094;11.900;2023-08-30T05:11:42;95598.75;;;15.39;100.00
11621;BME280;5866;49.094;11.900;2023-08-30T05:14:10;95603.03;;;14.87;100.00
11621;BME280;5866;49.094;11.900;2023-08-30T05:16:39;95585.59;;;15.31;100.00
11621;BME280;5866;49.094;11.900;2023-08-30T05:19:06;95584.50;;;15.84;100.00
11621;BME280;5866;49.094;11.900;2023-08-30T05:21:34;95585.63;;;16.21;100.00
11621;BME280;5866;49.094;11.900;2023-08-30T05:24:03;95590.06;;;16.40;100.00
11621;BME280;5866;49.094;11.900;2023-08-30T05:26:33;95586.41;;;16.21;100.00
11621;BME280;5866;49.094;11.900;2023-08-30T05:29:01;95587.16;;;16.54;100.00
11621;BME280;5866;49.094;11.900;2023-08-30T05:31:28;95585.59;;;16.72;100.00
11621;BME280;5866;49.094;11.900;2023-08-30T05:33:56;95577.69;;;16.83;100.00
11621;BME280;5866;49.094;11.900;2023-08-30T05:36:23;95589.44;;;15.87;100.00
11621;BME280;5866;49.094;11.900;2023-08-30T05:38:51;95591.59;;;16.16;100.00
11621;BME280;5866;49.094;11.900;2023-08-30T05:41:19;95585.53;;;16.34;100.00
11621;BME280;5866;49.094;11.900;2023-08-30T05:43:47;95586.88;;;16.12;100.00
11621;BME280;5866;49.094;11.900;2023-08-30T05:46:15;95589.66;;;16.36;100.00
11621;BME280;5866;49.094;11.900;2023-08-30T05:48:43;95580.06;;;16.98;100.00
11621;BME280;5866;49.094;11.900;2023-08-30T05:51:10;95582.72;;;17.29;100.00
11621;BME280;5866;49.094;11.900;2023-08-30T05:53:38;95583.44;;;17.42;100.00
11621;BME280;5866;49.094;11.900;2023-08-30T05:56:06;95578.44;;;17.71;100.00
11621;BME280;5866;49.094;11.900;2023-08-30T05:58:33;95584.38;;;16.99;100.00
11621;BME280;5866;49.094;11.900;2023-08-30T06:01:03;95588.75;;;16.05;100.00
11621;BME280;5866;49.094;11.900;2023-08-30T06:03:32;95585.78;;;15.62;100.00
11621;BME280;5866;49.094;11.900;2023-08-30T06:06:00;95589.44;;;15.80;100.00
11621;BME280;5866;49.094;11.900;2023-08-30T06:08:28;95605.50;;;14.82;100.00
11621;BME280;5866;49.094;11.900;2023-08-30T06:10:55;95594.84;;;15.08;100.00
11621;BME280;5866;49.094;11.900;2023-08-30T06:13:23;95603.47;;;15.30;100.00
11621;BME280;5866;49.094;11.900;2023-08-30T06:15:51;95598.28;;;16.51;100.00
11621;BME280;5866;49.094;11.900;2023-08-30T06:18:20;95594.56;;;16.52;100.00
11621;BME280;5866;49.094;11.900;2023-08-30T06:20:48;95595.69;;;16.69;100.00
11621;BME280;5866;49.094;11.900;2023-08-30T06:23:18;95602.81;;;15.94;100.00
11621;BME280;5866;49.094;11.900;2023-08-30T06:25:53;95602.06;;;15.54;100.00
11621;BME280;5866;49.094;11.900;2023-08-30T06:28:20;95599.78;;;15.64;100.00
11621;BME280;5866;49.094;11.900;2023-08-30T06:30:48;95605.97;;;15.45;100.00
11621;BME280;5866;49.094;11.900;2023-08-30T06:33:17;95601.84;;;15.49;100.00
11621;BME280;5866;49.094;11.900;2023-08-30T06:35:47;95595.63;;;15.81;100.00
11621;BME280;5866;49.094;11.900;2023-08-30T06:38:15;95594.78;;;16.82;100.00
11621;BME280;5866;49.094;11.900;2023-08-30T06:40:44;95587.31;;;18.25;100.00
11621;BME280;5866;49.094;11.900;2023-08-30T06:43:12;95574.28;;;19.30;100.00
11621;BME280;5866;49.094;11.900;2023-08-30T06:45:41;95575.88;;;19.60;100.00
11621;BME280;5866;49.094;11.900;2023-08-30T06:48:09;95577.09;;;20.50;100.00
11621;BME280;5866;49.094;11.900;2023-08-30T06:50:37;95574.56;;;20.89;100.00
11621;BME280;5866;49.094;11.900;2023-08-30T06:53:06;95579.44;;;22.20;92.12
11621;BME280;5866;49.094;11.900;2023-08-30T06:55:35;95575.00;;;21.42;91.06
11621;BME280;5866;49.094;11.900;2023-08-30T06:58:04;95583.88;;;20.81;96.50
11621;BME280;5866;49.094;11.900;2023-08-30T07:00:33;95581.53;;;21.63;94.06
11621;BME280;5866;49.094;11.900;2023-08-30T07:03:00;95579.31;;;23.49;72.79
11621;BME280;5866;49.094;11.900;2023-08-30T07:05:28;95596.94;;;22.55;75.14
11621;BME280;5866;49.094;11.900;2023-08-30T07:07:55;95585.38;;;21.50;83.15
11621;BME280;5866;49.094;11.900;2023-08-30T07:10:24;95576.31;;;21.23;88.16
11621;BME280;5866;49.094;11.900;2023-08-30T07:12:52;95580.63;;;22.07;85.18
11621;BME280;5866;49.094;11.900;2023-08-30T07:15:19;95578.78;;;22.72;81.93
11621;BME280;5866;49.094;11.900;2023-08-30T07:17:47;95573.72;;;25.16;63.94
11621;BME280;5866;49.094;11.900;2023-08-30T07:20:19;95573.53;;;26.93;54.75
11621;BME280;5866;49.094;11.900;2023-08-30T07:22:47;95572.63;;;27.12;52.30
11621;BME280;5866;49.094;11.900;2023-08-30T07:25:14;95574.91;;;26.90;51.59
11621;BME280;5866;49.094;11.900;2023-08-30T07:27:43;95570.25;;;25.81;53.77
11621;BME280;5866;49.094;11.900;2023-08-30T07:30:12;95570.72;;;25.18;56.71
11621;BME280;5866;49.094;11.900;2023-08-30T07:32:40;95567.16;;;24.97;60.32
11621;BME280;5866;49.094;11.900;2023-08-30T07:35:08;95571.25;;;25.10;56.33
11621;BME280;5866;49.094;11.900;2023-08-30T07:37:37;95571.75;;;24.87;58.52
11621;BME280;5866;49.094;11.900;2023-08-30T07:40:06;95567.69;;;24.27;62.11
11621;BME280;5866;49.094;11.900;2023-08-30T07:42:34;95577.06;;;24.10;63.52
11621;BME280;5866;49.094;11.900;2023-08-30T07:45:04;95578.50;;;24.22;62.38
11621;BME280;5866;49.094;11.900;2023-08-30T07:47:32;95568.66;;;25.55;58.75
11621;BME280;5866;49.094;11.900;2023-08-30T07:50:00;95569.06;;;24.97;61.16
11621;BME280;5866;49.094;11.900;2023-08-30T07:52:27;95567.66;;;24.84;61.59
11621;BME280;5866;49.094;11.900;2023-08-30T07:55:10;95570.81;;;26.14;56.89
11621;BME280;5866;49.094;11.900;2023-08-30T07:57:38;95563.41;;;27.81;51.80
11621;BME280;5866;49.094;11.900;2023-08-30T08:00:08;95566.97;;;29.47;45.53
11621;BME280;5866;49.094;11.900;2023-08-30T08:02:36;95571.16;;;26.71;51.61
11621;BME280;5866;49.094;11.900;2023-08-30T08:05:04;95562.84;;;27.06;48.85
11621;BME280;5866;49.094;11.900;2023-08-30T08:07:32;95580.41;;;26.70;50.77
11621;BME280;5866;49.094;11.900;2023-08-30T08:09:59;95576.78;;;26.16;51.23
11621;BME280;5866;49.094;11.900;2023-08-30T08:12:27;95576.84;;;26.85;49.34
11621;BME280;5866;49.094;11.900;2023-08-30T08:14:55;95572.13;;;27.83;48.82
11621;BME280;5866;49.094;11.900;2023-08-30T08:17:23;95571.28;;;27.48;48.20
11621;BME280;5866;49.094;11.900;2023-08-30T08:19:51;95571.72;;;26.63;50.93
11621;BME280;5866;49.094;11.900;2023-08-30T08:22:18;95571.22;;;26.51;52.86
11621;BME280;5866;49.094;11.900;2023-08-30T08:24:46;95570.13;;;23.92;62.99
11621;BME280;5866;49.094;11.900;2023-08-30T08:27:14;95572.28;;;20.52;88.29
11621;BME280;5866;49.094;11.900;2023-08-30T08:29:41;95577.25;;;18.98;100.00
11621;BME280;5866;49.094;11.900;2023-08-30T08:32:09;95575.47;;;21.22;100.00
11621;BME280;5866;49.094;11.900;2023-08-30T08:34:38;95567.38;;;22.92;74.29
11621;BME280;5866;49.094;11.900;2023-08-30T08:37:06;95575.25;;;22.72;76.38
11621;BME280;5866;49.094;11.900;2023-08-30T08:39:34;95579.69;;;22.18;77.98
11621;BME280;5866;49.094;11.900;2023-08-30T08:42:03;95573.91;;;23.54;66.70
11621;BME280;5866;49.094;11.900;2023-08-30T08:44:32;95571.06;;;23.66;69.13
11621;BME280;5866;49.094;11.900;2023-08-30T08:47:01;95569.53;;;23.80;64.64
11621;BME280;5866;49.094;11.900;2023-08-30T08:49:29;95566.06;;;23.53;65.71
11621;BME280;5866;49.094;11.900;2023-08-30T08:51:59;95572.69;;;24.56;62.06
11621;BME280;5866;49.094;11.900;2023-08-30T08:54:35;95563.09;;;23.91;63.39
11621;BME280;5866;49.094;11.900;2023-08-30T08:57:04;95568.00;;;25.03;56.56
11621;BME280;5866;49.094;11.900;2023-08-30T08:59:32;95563.09;;;24.95;56.92
11621;BME280;5866;49.094;11.900;2023-08-30T09:02:00;95573.78;;;22.86;65.12
11621;BME280;5866;49.094;11.900;2023-08-30T09:04:29;95566.59;;;23.50;64.58
11621;BME280;5866;49.094;11.900;2023-08-30T09:06:59;95569.34;;;24.38;59.78
11621;BME280;5866;49.094;11.900;2023-08-30T09:09:27;95565.31;;;25.03;57.98
11621;BME280;5866;49.094;11.900;2023-08-30T09:11:54;95564.09;;;26.70;52.86
11621;BME280;5866;49.094;11.900;2023-08-30T09:14:22;95564.38;;;27.95;49.70
11621;BME280;5866;49.094;11.900;2023-08-30T09:16:55;95553.88;;;29.06;46.65
11621;BME280;5866;49.094;11.900;2023-08-30T09:19:23;95554.00;;;29.90;45.67
11621;BME280;5866;49.094;11.900;2023-08-30T09:21:51;95549.03;;;30.37;42.73
11621;BME280;5866;49.094;11.900;2023-08-30T09:24:20;95548.72;;;29.05;41.49
11621;BME280;5866;49.094;11.900;2023-08-30T09:26:49;95550.13;;;29.21;42.68
11621;BME280;5866;49.094;11.900;2023-08-30T09:29:18;95544.31;;;29.28;44.07
11621;BME280;5866;49.094;11.900;2023-08-30T09:31:46;95548.38;;;30.27;40.45
11621;BME280;5866;49.094;11.900;2023-08-30T09:34:13;95545.31;;;30.88;40.94
11621;BME280;5866;49.094;11.900;2023-08-30T09:36:42;95550.38;;;31.08;39.02
11621;BME280;5866;49.094;11.900;2023-08-30T09:39:10;95544.50;;;31.01;41.32
11621;BME280;5866;49.094;11.900;2023-08-30T09:41:42;95544.53;;;30.14;41.26
11621;BME280;5866;49.094;11.900;2023-08-30T09:44:10;95546.94;;;31.38;37.46
11621;BME280;5866;49.094;11.900;2023-08-30T09:46:42;95545.81;;;31.39;38.96
11621;BME280;5866;49.094;11.900;2023-08-30T09:49:18;95548.59;;;31.25;37.56
11621;BME280;5866;49.094;11.900;2023-08-30T09:51:47;95542.47;;;30.06;40.51
11621;BME280;5866;49.094;11.900;2023-08-30T09:54:17;95540.44;;;28.20;42.29
11621;BME280;5866;49.094;11.900;2023-08-30T09:57:05;95540.88;;;26.88;46.11
11621;BME280;5866;49.094;11.900;2023-08-30T09:59:35;95536.56;;;27.25;46.75
11621;BME280;5866;49.094;11.900;2023-08-30T10:02:05;95540.28;;;26.32;46.85
11621;BME280;5866;49.094;11.900;2023-08-30T10:04:34;95533.59;;;27.22;45.94
11621;BME280;5866;49.094;11.900;2023-08-30T10:07:06;95530.72;;;29.23;41.84
11621;BME280;5866;49.094;11.900;2023-08-30T10:09:37;95525.94;;;29.98;40.03
11621;BME280;5866;49.094;11.900;2023-08-30T10:12:23;95522.13;;;30.12;39.74
11621;BME280;5866;49.094;11.900;2023-08-30T10:14:51;95525.38;;;27.94;44.86
11621;BME280;5866;49.094;11.900;2023-08-30T10:17:20;95516.25;;;28.38;44.23
11621;BME280;5866;49.094;11.900;2023-08-30T10:19:53;95518.47;;;28.07;41.20
11621;BME280;5866;49.094;11.900;2023-08-30T10:22:23;95511.47;;;28.24;43.27
11621;BME280;5866;49.094;11.900;2023-08-30T10:24:54;95519.44;;;28.21;43.47
11621;BME280;5866;49.094;11.900;2023-08-30T10:27:41;95513.28;;;28.58;40.46
11621;BME280;5866;49.094;11.900;2023-08-30T10:30:10;95512.97;;;29.01;38.90
11621;BME280;5866;49.094;11.900;2023-08-30T10:32:39;95506.63;;;28.87;40.65
11621;BME280;5866;49.094;11.900;2023-08-30T10:35:10;95509.03;;;27.99;42.14
11621;BME280;5866;49.094;11.900;2023-08-30T10:37:38;95508.56;;;27.20;44.68
11621;BME280;5866;49.094;11.900;2023-08-30T10:40:07;95512.38;;;26.75;44.96
11621;BME280;5866;49.094;11.900;2023-08-30T10:42:34;95522.09;;;26.27;47.24
11621;BME280;5866;49.094;11.900;2023-08-30T10:45:04;95511.56;;;25.70;48.79
11621;BME280;5866;49.094;11.900;2023-08-30T10:47:40;95515.06;;;26.16;47.54
11621;BME280;5866;49.094;11.900;2023-08-30T10:50:09;95512.91;;;25.88;47.85
11621;BME280;5866;49.094;11.900;2023-08-30T10:52:37;95519.66;;;24.80;50.21
11621;BME280;5866;49.094;11.900;2023-08-30T10:55:06;95522.84;;;23.05;58.49
11621;BME280;5866;49.094;11.900;2023-08-30T10:57:34;95518.19;;;21.49;60.64
11621;BME280;5866;49.094;11.900;2023-08-30T11:00:08;95518.34;;;20.24;74.48
11621;BME280;5866;49.094;11.900;2023-08-30T11:02:37;95522.41;;;19.64;81.28
11621;BME280;5866;49.094;11.900;2023-08-30T11:05:06;95527.41;;;19.83;84.16
11621;BME280;5866;49.094;11.900;2023-08-30T11:07:34;95523.22;;;20.39;88.33
11621;BME280;5866;49.094;11.900;2023-08-30T11:10:04;95516.69;;;20.35;83.12
11621;BME280;5866;49.094;11.900;2023-08-30T11:12:33;95515.88;;;21.07;82.06
11621;BME280;5866;49.094;11.900;2023-08-30T11:15:01;95519.84;;;20.32;80.96
11621;BME280;5866;49.094;11.900;2023-08-30T11:17:30;95514.03;;;20.51;82.89
11621;BME280;5866;49.094;11.900;2023-08-30T11:20:06;95515.75;;;19.43;94.87
11621;BME280;5866;49.094;11.900;2023-08-30T11:22:35;95516.94;;;19.47;100.00
11621;BME280;5866;49.094;11.900;2023-08-30T11:25:04;95515.41;;;20.26;100.00
11621;BME280;5866;49.094;11.900;2023-08-30T11:27:32;95510.81;;;19.87;94.29
11621;BME280;5866;49.094;11.900;2023-08-30T11:29:59;95515.25;;;19.23;100.00
11621;BME280;5866;49.094;11.900;2023-08-30T11:32:27;95519.22;;;19.09;100.00
11621;BME280;5866;49.094;11.900;2023-08-30T11:34:57;95514.44;;;19.23;100.00
11621;BME280;5866;49.094;11.900;2023-08-30T11:37:26;95521.72;;;19.57;100.00
11621;BME280;5866;49.094;11.900;2023-08-30T11:39:55;95516.41;;;19.97;100.00
11621;BME280;5866;49.094;11.900;2023-08-30T11:42:23;95524.34;;;18.40;100.00
11621;BME280;5866;49.094;11.900;2023-08-30T11:44:51;95521.44;;;18.71;100.00
11621;BME280;5866;49.094;11.900;2023-08-30T11:47:19;95511.38;;;19.08;100.00
11621;BME280;5866;49.094;11.900;2023-08-30T11:49:48;95513.50;;;19.87;98.41
11621;BME280;5866;49.094;11.900;2023-08-30T11:52:18;95503.81;;;20.82;91.20
11621;BME280;5866;49.094;11.900;2023-08-30T11:54:47;95507.47;;;21.20;90.02
11621;BME280;5866;49.094;11.900;2023-08-30T11:57:15;95515.59;;;21.92;78.60
11621;BME280;5866;49.094;11.900;2023-08-30T11:59:42;95508.59;;;22.39;80.59
11621;BME280;5866;49.094;11.900;2023-08-30T12:02:12;95512.88;;;22.57;78.90
11621;BME280;5866;49.094;11.900;2023-08-30T12:04:40;95509.00;;;21.50;76.58
11621;BME280;5866;49.094;11.900;2023-08-30T12:07:08;95505.78;;;22.29;74.81
11621;BME280;5866;49.094;11.900;2023-08-30T12:09:38;95503.75;;;22.41;72.43
11621;BME280;5866;49.094;11.900;2023-08-30T12:12:06;95510.97;;;22.09;78.36
11621;BME280;5866;49.094;11.900;2023-08-30T12:14:36;95500.00;;;22.42;75.79
11621;BME280;5866;49.094;11.900;2023-08-30T12:17:04;95495.03;;;21.53;79.50
11621;BME280;5866;49.094;11.900;2023-08-30T12:19:35;95497.00;;;21.41;84.27
11621;BME280;5866;49.094;11.900;2023-08-30T12:22:03;95505.56;;;22.09;79.61
11621;BME280;5866;49.094;11.900;2023-08-30T12:24:42;95500.50;;;22.39;72.94
11621;BME280;5866;49.094;11.900;2023-08-30T12:27:11;95503.78;;;22.89;68.13
11621;BME280;5866;49.094;11.900;2023-08-30T12:29:39;95497.25;;;22.85;68.48
11621;BME280;5866;49.094;11.900;2023-08-30T12:32:07;95494.75;;;23.06;70.92
11621;BME280;5866;49.094;11.900;2023-08-30T12:34:35;95489.47;;;22.94;66.02
11621;BME280;5866;49.094;11.900;2023-08-30T12:37:03;95491.91;;;23.54;68.03
11621;BME280;5866;49.094;11.900;2023-08-30T12:39:31;95497.81;;;22.87;69.45
11621;BME280;5866;49.094;11.900;2023-08-30T12:42:00;95487.25;;;23.18;71.01
11621;BME280;5866;49.094;11.900;2023-08-30T12:44:28;95496.72;;;23.47;68.44
11621;BME280;5866;49.094;11.900;2023-08-30T12:46:56;95489.31;;;23.74;62.22
11621;BME280;5866;49.094;11.900;2023-08-30T12:49:23;95493.25;;;23.98;60.05
11621;BME280;5866;49.094;11.900;2023-08-30T12:51:51;95493.91;;;24.15;58.44
11621;BME280;5866;49.094;11.900;2023-08-30T12:54:18;95500.38;;;24.09;61.21
11621;BME280;5866;49.094;11.900;2023-08-30T12:56:46;95493.84;;;24.05;58.36
11621;BME280;5866;49.094;11.900;2023-08-30T12:59:14;95486.44;;;24.48;59.71
11621;BME280;5866;49.094;11.900;2023-08-30T13:01:42;95490.28;;;24.72;58.30
11621;BME280;5866;49.094;11.900;2023-08-30T13:04:09;95483.63;;;24.22;58.31